Time;durP1;ratioP1;P1;durP2;ratioP2;P2;SDS_P1;SDS_P2;PMS_P1;PMS_P2;Temp;Humidity;BMP_temperature;BMP_pressure;BME280_temperature;BME280_humidity;BME280_pressure;Samples;Min_cycle;Max_cycle;Signal;HPM_P1;HPM_P2
2022/03/18 00:00:21;;;;;;;18.50;6.32;;;2.50;99.90;;;;;;4995190;28;20038;-72
2022/03/18 00:02:49;;;;;;;14.85;6.10;;;2.50;99.90;;;;;;4995170;28;20042;-72
2022/03/18 00:05:16;;;;;;;16.33;6.00;;;2.70;99.90;;;;;;4994952;28;20426;-73
2022/03/18 00:07:42;;;;;;;13.98;6.00;;;2.50;99.90;;;;;;4995397;28;20042;-73
2022/03/18 00:10:09;;;;;;;16.20;6.22;;;2.50;99.90;;;;;;4994834;28;20121;-72
2022/03/18 00:12:36;;;;;;;13.90;6.22;;;2.50;99.90;;;;;;4994685;28;20509;-75
2022/03/18 00:15:02;;;;;;;20.65;6.72;;;2.40;99.90;;;;;;4978046;28;20129;-74
2022/03/18 00:17:27;;;;;;;12.88;6.57;;;2.40;99.90;;;;;;4994855;28;20121;-73
2022/03/18 00:19:53;;;;;;;18.95;6.38;;;2.40;99.90;;;;;;4978025;28;20113;-73
2022/03/18 00:22:19;;;;;;;20.13;6.80;;;2.40;99.90;;;;;;4995068;28;20052;-73
2022/03/18 00:24:44;;;;;;;20.40;6.88;;;2.40;99.90;;;;;;4977760;28;20073;-73
2022/03/18 00:27:10;;;;;;;18.23;7.03;;;2.40;99.90;;;;;;4995493;28;20378;-73
2022/03/18 00:29:36;;;;;;;15.13;6.63;;;2.40;99.90;;;;;;4998557;28;20077;-73
2022/03/18 00:32:02;;;;;;;16.90;5.65;;;2.30;99.90;;;;;;4998575;28;20124;-72
2022/03/18 00:34:27;;;;;;;20.67;7.20;;;2.40;99.90;;;;;;4981481;28;20050;-73
2022/03/18 00:36:54;;;;;;;14.45;6.72;;;2.30;99.90;;;;;;4980306;28;20058;-72
2022/03/18 00:39:20;;;;;;;15.43;6.55;;;2.30;99.90;;;;;;4998057;28;20042;-72
2022/03/18 00:41:46;;;;;;;16.58;6.40;;;2.30;99.90;;;;;;4980853;28;20046;-73
2022/03/18 00:44:11;;;;;;;19.27;6.82;;;2.30;99.90;;;;;;4980718;28;20078;-72
2022/03/18 00:46:37;;;;;;;18.95;6.72;;;2.30;99.90;;;;;;4998054;28;20053;-72
2022/03/18 00:52:05;;;;;;;18.83;7.43;;;2.20;99.90;;;;;;4980764;28;20058;-72
2022/03/18 00:54:37;;;;;;;15.25;6.97;;;2.20;99.90;;;;;;4998436;28;20042;-73
2022/03/18 00:57:04;;;;;;;22.83;7.15;;;2.20;99.90;;;;;;4998185;28;20054;-73
2022/03/18 00:59:30;;;;;;;15.70;6.63;;;2.20;99.90;;;;;;4981069;28;20050;-71
2022/03/18 01:01:57;;;;;;;17.13;6.80;;;2.20;99.90;;;;;;4997092;28;20414;-71
2022/03/18 01:04:24;;;;;;;20.85;7.15;;;2.10;99.90;;;;;;4997838;28;20046;-72
2022/03/18 01:06:52;;;;;;;14.50;6.78;;;2.20;99.90;;;;;;4981130;28;20372;-74
2022/03/18 01:09:17;;;;;;;16.35;7.75;;;2.20;99.90;;;;;;4997834;28;20117;-72
2022/03/18 01:11:43;;;;;;;18.38;8.02;;;2.10;99.90;;;;;;4998047;28;20189;-72
2022/03/18 01:14:09;;;;;;;20.50;7.72;;;2.20;99.90;;;;;;4980387;28;20533;-73
2022/03/18 01:16:35;;;;;;;15.32;7.82;;;2.40;99.90;;;;;;4997717;28;20038;-73
2022/03/18 01:19:00;;;;;;;19.90;8.70;;;2.10;99.90;;;;;;4980656;28;20050;-75
2022/03/18 01:21:26;;;;;;;19.73;8.07;;;2.10;99.90;;;;;;4980993;28;20046;-73
2022/03/18 01:23:51;;;;;;;24.40;9.00;;;2.10;99.90;;;;;;4964634;28;20054;-72
2022/03/18 01:26:17;;;;;;;16.20;8.00;;;2.20;99.90;;;;;;4997435;28;20418;-74
2022/03/18 01:28:43;;;;;;;19.20;8.80;;;2.10;99.90;;;;;;4980624;28;20069;-73
2022/03/18 01:31:09;;;;;;;24.52;9.70;;;2.20;99.90;;;;;;4997554;28;20046;-72
2022/03/18 01:33:37;;;;;;;21.35;9.82;;;2.20;99.90;;;;;;4997025;28;20100;-74
2022/03/18 01:36:04;;;;;;;21.92;9.38;;;2.20;99.90;;;;;;4981025;28;20120;-73
2022/03/18 01:38:30;;;;;;;30.30;9.57;;;2.10;99.90;;;;;;4996871;28;20050;-72
2022/03/18 01:40:56;;;;;;;19.33;9.85;;;2.10;99.90;;;;;;4979607;28;20493;-73
2022/03/18 01:43:21;;;;;;;16.85;9.55;;;2.20;99.90;;;;;;4998063;28;20063;-72
2022/03/18 01:45:49;;;;;;;16.42;9.57;;;2.20;99.90;;;;;;4997193;28;20336;-73
2022/03/18 01:48:14;;;;;;;20.83;9.65;;;2.10;99.90;;;;;;4997081;28;20057;-73
2022/03/18 01:50:41;;;;;;;31.63;10.93;;;2.20;99.90;;;;;;4996968;28;20458;-73
2022/03/18 01:53:07;;;;;;;25.23;10.70;;;2.10;99.90;;;;;;4997123;28;20049;-72
2022/03/18 01:55:33;;;;;;;21.08;10.38;;;2.10;99.90;;;;;;4980147;28;20057;-72
2022/03/18 01:57:59;;;;;;;27.48;10.63;;;2.10;99.90;;;;;;4997302;28;20047;-72
2022/03/18 02:00:25;;;;;;;23.95;11.43;;;2.10;99.90;;;;;;4997208;28;20053;-74
2022/03/18 02:02:52;;;;;;;22.05;10.70;;;2.10;99.90;;;;;;4996680;28;20053;-73
2022/03/18 02:05:17;;;;;;;22.52;10.55;;;2.00;99.90;;;;;;4980436;28;20363;-75
2022/03/18 02:07:45;;;;;;;25.63;12.30;;;2.10;99.90;;;;;;4980300;28;20046;-73
2022/03/18 02:10:11;;;;;;;19.13;10.70;;;2.10;99.90;;;;;;4979719;28;20348;-72
2022/03/18 02:12:37;;;;;;;23.52;10.63;;;2.10;99.90;;;;;;4963641;28;20053;-72
2022/03/18 02:15:03;;;;;;;19.67;10.77;;;2.10;99.90;;;;;;4979392;28;20054;-71
2022/03/18 02:17:29;;;;;;;25.88;10.63;;;2.10;99.90;;;;;;4996662;28;20046;-74
2022/03/18 02:19:55;;;;;;;17.35;10.30;;;2.60;99.90;;;;;;4996936;28;20112;-72
2022/03/18 02:22:23;;;;;;;23.70;10.75;;;2.10;99.90;;;;;;4979214;28;20050;-71
2022/03/18 02:24:50;;;;;;;21.10;10.68;;;2.10;99.90;;;;;;4996625;28;20058;-73
2022/03/18 02:27:16;;;;;;;21.83;10.88;;;2.10;99.90;;;;;;4996362;28;20052;-72
2022/03/18 02:29:43;;;;;;;25.95;11.30;;;2.10;99.90;;;;;;4979502;28;20053;-72
2022/03/18 02:32:10;;;;;;;23.80;10.50;;;2.10;99.90;;;;;;4979329;28;20057;-72
2022/03/18 02:34:37;;;;;;;19.90;10.27;;;2.00;99.90;;;;;;4979941;28;20414;-72
2022/03/18 02:37:03;;;;;;;29.15;11.55;;;2.00;99.90;;;;;;4978522;28;20057;-74
2022/03/18 02:39:29;;;;;;;21.05;10.65;;;2.00;99.90;;;;;;4995908;28;20117;-72
2022/03/18 02:41:54;;;;;;;20.33;10.88;;;2.00;99.90;;;;;;4996047;28;20121;-74
2022/03/18 02:44:20;;;;;;;24.75;10.45;;;2.00;99.90;;;;;;4996066;28;20451;-72
2022/03/18 02:46:46;;;;;;;22.48;11.90;;;2.00;99.90;;;;;;4979475;28;20081;-73
2022/03/18 02:49:12;;;;;;;27.50;11.18;;;2.00;99.90;;;;;;4979581;28;20046;-73
2022/03/18 02:51:37;;;;;;;20.20;9.98;;;2.00;99.90;;;;;;4961641;28;20050;-73
2022/03/18 02:54:04;;;;;;;22.80;10.55;;;2.00;99.90;;;;;;4995967;28;20382;-72
2022/03/18 02:56:31;;;;;;;15.63;9.57;;;1.90;99.90;;;;;;4996285;28;20337;-72
2022/03/18 02:58:56;;;;;;;21.90;10.18;;;1.90;99.90;;;;;;4995382;28;20069;-74
2022/03/18 03:01:22;;;;;;;18.08;9.80;;;1.90;99.90;;;;;;4978697;28;20451;-71
2022/03/18 03:03:47;;;;;;;27.42;11.13;;;1.90;99.90;;;;;;4978581;28;20046;-72
2022/03/18 03:08:57;;;;;;;20.00;10.40;;;1.90;99.90;;;;;;4995907;28;20137;-75
2022/03/18 03:11:23;;;;;;;20.15;9.55;;;1.80;99.90;;;;;;4978355;28;20129;-72
2022/03/18 03:13:51;;;;;;;20.05;10.18;;;1.90;99.90;;;;;;4995994;28;20047;-73
2022/03/18 03:16:19;;;;;;;19.58;9.63;;;1.80;99.90;;;;;;4995573;28;20384;-72
2022/03/18 03:18:45;;;;;;;22.40;10.70;;;1.80;99.90;;;;;;4995892;28;20046;-74
2022/03/18 03:21:11;;;;;;;21.90;10.32;;;1.80;99.90;;;;;;4995644;28;20047;-73
2022/03/18 03:23:37;;;;;;;20.20;9.70;;;1.80;99.90;;;;;;4995495;28;20050;-72
2022/03/18 03:26:02;;;;;;;24.88;10.70;;;1.80;99.90;;;;;;4995399;28;20133;-72
2022/03/18 03:28:28;;;;;;;21.10;11.77;;;1.80;99.90;;;;;;4978865;28;20058;-72
2022/03/18 03:30:54;;;;;;;24.00;11.68;;;1.80;99.90;;;;;;4995437;28;20137;-73
2022/03/18 03:33:19;;;;;;;23.60;11.15;;;1.80;99.90;;;;;;4995449;28;20057;-72
2022/03/18 03:35:45;;;;;;;20.73;11.30;;;1.90;99.90;;;;;;4995503;28;20042;-72
2022/03/18 03:38:13;;;;;;;20.95;10.95;;;2.20;99.90;;;;;;4995635;28;20417;-72
2022/03/18 03:40:38;;;;;;;24.60;10.25;;;1.80;99.90;;;;;;4995614;28;20054;-73
2022/03/18 03:43:06;;;;;;;20.27;10.98;;;1.80;99.90;;;;;;4978211;28;20062;-73
2022/03/18 03:45:32;;;;;;;25.10;10.85;;;1.80;99.90;;;;;;4995451;28;20042;-72
2022/03/18 03:47:57;;;;;;;22.05;11.18;;;1.80;99.90;;;;;;4995512;28;20061;-75
2022/03/18 03:50:23;;;;;;;20.63;10.32;;;1.80;99.90;;;;;;4995259;28;20442;-72
2022/03/18 03:52:48;;;;;;;22.33;10.93;;;1.80;99.90;;;;;;4995647;28;20141;-73
2022/03/18 03:55:14;;;;;;;21.38;10.70;;;1.80;99.90;;;;;;4995127;28;20570;-74
2022/03/18 03:57:40;;;;;;;19.73;10.63;;;1.70;99.90;;;;;;4995557;28;20137;-73
2022/03/18 04:00:08;;;;;;;29.33;11.23;;;1.70;99.90;;;;;;4977377;28;20478;-72
2022/03/18 04:02:33;;;;;;;17.83;10.55;;;1.70;99.90;;;;;;4995805;28;20477;-73
2022/03/18 04:04:59;;;;;;;20.65;10.73;;;1.70;99.90;;;;;;4982151;28;20053;-73
2022/03/18 04:07:25;;;;;;;23.65;10.65;;;1.70;99.90;;;;;;4999171;28;20049;-73
2022/03/18 04:09:54;;;;;;;18.95;10.15;;;1.60;99.90;;;;;;4981771;28;20050;-73
2022/03/18 04:12:21;;;;;;;22.70;11.48;;;1.60;99.90;;;;;;4998858;28;20129;-72
2022/03/18 04:14:47;;;;;;;21.17;11.27;;;1.60;99.90;;;;;;4998733;28;20463;-74
2022/03/18 04:17:13;;;;;;;19.00;11.07;;;2.10;99.90;;;;;;4998794;28;20046;-71
2022/03/18 04:19:39;;;;;;;24.85;11.05;;;1.60;99.90;;;;;;4999050;28;20149;-73
2022/03/18 04:22:05;;;;;;;20.63;12.00;;;1.60;99.90;;;;;;4999081;28;20089;-71
2022/03/18 04:24:31;;;;;;;19.85;10.70;;;1.60;99.90;;;;;;4981216;28;20077;-73
2022/03/18 04:26:56;;;;;;;21.33;10.77;;;1.50;99.90;;;;;;4982010;28;20050;-73
2022/03/18 04:29:22;;;;;;;22.92;11.20;;;1.50;99.90;;;;;;4998607;28;20080;-72
2022/03/18 04:31:47;;;;;;;25.45;11.20;;;1.50;99.90;;;;;;4998521;28;20451;-75
2022/03/18 04:34:13;;;;;;;26.08;10.32;;;1.40;99.90;;;;;;4998733;28;20057;-74
2022/03/18 04:36:39;;;;;;;22.58;10.75;;;1.50;99.90;;;;;;4981516;28;20451;-73
2022/03/18 04:39:04;;;;;;;20.95;11.00;;;1.50;99.90;;;;;;4997392;28;20105;-72
2022/03/18 04:41:30;;;;;;;23.17;11.30;;;1.40;99.90;;;;;;4997733;28;20046;-73
2022/03/18 04:43:56;;;;;;;23.13;11.25;;;1.40;99.90;;;;;;4998330;28;20076;-75
2022/03/18 04:46:21;;;;;;;29.52;12.52;;;1.40;99.90;;;;;;4998303;28;20473;-74
2022/03/18 04:48:47;;;;;;;24.63;11.70;;;1.50;99.90;;;;;;4981282;28;20042;-72
2022/03/18 04:51:12;;;;;;;20.35;11.13;;;1.40;99.90;;;;;;4998140;28;20108;-73
2022/03/18 04:53:40;;;;;;;21.10;11.77;;;1.40;99.90;;;;;;4981183;28;20042;-73
2022/03/18 04:57:15;;;;;;;22.33;11.88;;;1.40;99.90;;;;;;4997834;28;20490;-73
2022/03/18 04:58:51;;;;;;;21.63;11.43;;;1.50;99.90;;;;;;4997405;28;20507;-73
2022/03/18 05:01:18;;;;;;;22.05;11.68;;;1.50;99.90;;;;;;4998001;28;20173;-73
2022/03/18 05:03:46;;;;;;;21.98;11.73;;;1.50;99.90;;;;;;4998112;28;20128;-73
2022/03/18 05:06:12;;;;;;;28.05;12.63;;;1.50;99.90;;;;;;4998143;28;20074;-74
2022/03/18 05:08:37;;;;;;;20.85;11.60;;;1.50;99.90;;;;;;4997781;28;20595;-72
2022/03/18 05:11:03;;;;;;;19.08;11.30;;;1.50;99.90;;;;;;4997824;28;20069;-73
2022/03/18 05:13:29;;;;;;;25.83;11.90;;;1.60;99.90;;;;;;4997172;28;20057;-72
2022/03/18 05:15:56;;;;;;;19.98;11.50;;;1.60;99.90;;;;;;5000622;28;20042;-73
2022/03/18 05:18:22;;;;;;;18.95;11.65;;;1.60;99.90;;;;;;4997534;28;20050;-72
2022/03/18 05:20:48;;;;;;;26.75;12.20;;;1.60;99.90;;;;;;4980393;28;20137;-72
2022/03/18 05:23:14;;;;;;;16.98;10.70;;;1.60;99.90;;;;;;4997577;28;20117;-70
2022/03/18 05:25:40;;;;;;;18.73;10.20;;;1.60;99.90;;;;;;4997432;28;20133;-70
2022/03/18 05:28:07;;;;;;;18.55;10.45;;;1.60;99.90;;;;;;4997445;28;20078;-72
2022/03/18 05:30:39;;;;;;;21.77;11.05;;;1.50;99.90;;;;;;4996777;28;20089;-72
2022/03/18 05:33:05;;;;;;;20.05;11.15;;;1.50;99.90;;;;;;4996543;28;20050;-71
2022/03/18 05:35:30;;;;;;;22.55;12.15;;;1.50;99.90;;;;;;4979980;28;20097;-69
2022/03/18 05:37:56;;;;;;;20.63;11.73;;;1.60;99.90;;;;;;4996920;28;20046;-70
2022/03/18 05:40:22;;;;;;;20.25;12.85;;;1.60;99.90;;;;;;4979542;28;20478;-71
2022/03/18 05:42:48;;;;;;;23.55;12.85;;;1.60;99.90;;;;;;4997342;28;20057;-71
2022/03/18 05:45:14;;;;;;;25.23;13.07;;;1.60;99.90;;;;;;4997368;28;20047;-71
2022/03/18 05:47:40;;;;;;;18.58;12.35;;;1.60;99.90;;;;;;4997151;28;20057;-71
2022/03/18 05:50:07;;;;;;;22.95;11.85;;;1.50;99.90;;;;;;4977701;28;20038;-71
2022/03/18 05:52:35;;;;;;;22.75;12.20;;;1.50;99.90;;;;;;4996632;28;20050;-71
2022/03/18 05:55:01;;;;;;;24.90;13.55;;;1.50;99.90;;;;;;4996619;28;20133;-71
2022/03/18 05:57:27;;;;;;;19.75;11.23;;;1.50;99.90;;;;;;4996652;28;20125;-71
2022/03/18 05:59:57;;;;;;;17.27;11.73;;;1.50;99.90;;;;;;4996468;28;20489;-72
2022/03/18 06:02:23;;;;;;;22.67;12.05;;;1.50;99.90;;;;;;4996531;28;20050;-72
2022/03/18 06:07:28;;;;;;;22.63;13.70;;;1.50;99.90;;;;;;5059277;23;20054;-72
2022/03/18 06:12:37;;;;;;;24.25;14.02;;;1.50;99.90;;;;;;5016344;28;20050;-71
2022/03/18 06:15:03;;;;;;;22.67;14.15;;;1.70;99.90;;;;;;5017705;28;20347;-72
2022/03/18 06:17:29;;;;;;;27.67;14.10;;;1.60;99.90;;;;;;5014673;28;20465;-70
2022/03/18 06:19:55;;;;;;;31.38;15.05;;;1.60;99.90;;;;;;5015186;28;20058;-70
2022/03/18 06:22:20;;;;;;;27.17;15.85;;;1.60;99.90;;;;;;5016075;28;20053;-69
2022/03/18 06:24:46;;;;;;;22.38;14.93;;;1.70;99.90;;;;;;5016010;28;20046;-70
2022/03/18 06:27:11;;;;;;;21.48;13.85;;;1.70;99.90;;;;;;5015126;28;20042;-70
2022/03/18 06:29:37;;;;;;;28.17;14.93;;;1.80;99.90;;;;;;5015185;28;20112;-71
2022/03/18 06:32:03;;;;;;;25.55;14.25;;;1.80;99.90;;;;;;5016280;28;20129;-70
2022/03/18 06:34:29;;;;;;;22.20;14.63;;;1.90;99.90;;;;;;5016195;28;20437;-71
2022/03/18 06:36:57;;;;;;;23.10;14.73;;;1.90;99.90;;;;;;5008836;28;20104;-70
2022/03/18 06:39:24;;;;;;;24.27;15.30;;;1.90;99.90;;;;;;5004637;28;20046;-69
2022/03/18 06:41:50;;;;;;;29.17;15.68;;;2.00;99.90;;;;;;4996055;28;20471;-71
2022/03/18 06:44:16;;;;;;;29.15;15.45;;;2.10;99.90;;;;;;4995648;28;20049;-70
2022/03/18 06:46:41;;;;;;;21.13;14.35;;;2.10;99.90;;;;;;4994328;28;20128;-71
2022/03/18 06:49:07;;;;;;;22.10;15.20;;;2.20;99.90;;;;;;4995298;28;20065;-71
2022/03/18 06:51:34;;;;;;;25.83;15.95;;;2.30;99.90;;;;;;4993690;28;20042;-70
2022/03/18 06:54:00;;;;;;;23.35;15.50;;;2.40;99.90;;;;;;4996169;28;20056;-72
2022/03/18 06:56:27;;;;;;;26.55;16.70;;;2.50;99.90;;;;;;4998166;28;20034;-71
2022/03/18 06:58:53;;;;;;;28.30;16.55;;;2.60;99.90;;;;;;5014453;28;20041;-72
2022/03/18 07:01:21;;;;;;;27.42;17.50;;;2.70;99.90;;;;;;5015551;28;20139;-67
2022/03/18 07:03:47;;;;;;;28.85;17.02;;;2.80;99.90;;;;;;5014376;28;20053;-71
2022/03/18 07:06:13;;;;;;;25.20;18.52;;;2.90;99.90;;;;;;4991611;28;20062;-70
2022/03/18 07:08:38;;;;;;;29.77;18.83;;;3.00;99.90;;;;;;4975697;28;20436;-70
2022/03/18 07:11:04;;;;;;;25.00;16.20;;;3.10;99.90;;;;;;4975845;28;20082;-70
2022/03/18 07:13:30;;;;;;;36.50;19.80;;;3.20;99.90;;;;;;4976085;28;20205;-69
2022/03/18 07:17:54;;;;;;;29.95;19.23;;;3.40;99.90;;;;;;4959169;28;20138;-70
2022/03/18 07:18:42;;;;;;;32.17;18.65;;;3.50;99.90;;;;;;4975615;28;20061;-69
2022/03/18 07:21:07;;;;;;;27.17;17.77;;;3.60;99.90;;;;;;4975896;28;20047;-70
2022/03/18 07:23:33;;;;;;;26.02;18.20;;;3.70;99.90;;;;;;4979465;28;20086;-70
2022/03/18 07:25:58;;;;;;;31.40;19.27;;;3.90;99.90;;;;;;4958105;28;20057;-70
2022/03/18 07:28:24;;;;;;;28.50;18.70;;;4.00;99.90;;;;;;4957897;28;20047;-70
2022/03/18 07:30:49;;;;;;;31.85;17.98;;;4.10;99.90;;;;;;4975443;28;20057;-68
2022/03/18 07:33:15;;;;;;;30.02;19.77;;;4.20;99.90;;;;;;4958526;28;20050;-69
2022/03/18 07:35:42;;;;;;;28.40;18.90;;;4.30;99.90;;;;;;4975710;28;20054;-70
2022/03/18 07:38:09;;;;;;;32.47;19.38;;;4.40;99.90;;;;;;4982488;28;20126;-70
2022/03/18 07:40:36;;;;;;;25.65;18.55;;;4.50;99.90;;;;;;4981392;28;20054;-69
2022/03/18 07:43:01;;;;;;;25.38;17.90;;;4.60;99.90;;;;;;4992242;28;20081;-69
2022/03/18 07:45:29;;;;;;;28.17;17.88;;;4.70;99.90;;;;;;4998349;28;20093;-69
2022/03/18 07:47:56;;;;;;;29.02;17.65;;;4.70;99.90;;;;;;4999009;28;20054;-70
2022/03/18 07:50:24;;;;;;;28.23;18.23;;;4.90;99.90;;;;;;4981628;28;20370;-70
2022/03/18 07:52:55;;;;;;;30.15;19.05;;;5.00;99.90;;;;;;4980373;28;20074;-69
2022/03/18 07:55:23;;;;;;;29.23;18.27;;;5.10;99.90;;;;;;4998961;28;20051;-69
2022/03/18 07:57:49;;;;;;;27.35;18.92;;;5.10;99.90;;;;;;4998959;28;20419;-70
2022/03/18 08:00:16;;;;;;;32.63;19.50;;;5.20;99.90;;;;;;4981744;28;20054;-73
2022/03/18 08:02:43;;;;;;;27.10;17.42;;;5.30;99.90;;;;;;4998198;28;20050;-71
2022/03/18 08:05:10;;;;;;;32.25;18.38;;;5.50;99.90;;;;;;4994577;28;20383;-71
2022/03/18 08:07:36;;;;;;;27.50;19.73;;;5.60;99.90;;;;;;4997644;28;20478;-72
2022/03/18 08:10:03;;;;;;;36.50;19.63;;;5.70;99.90;;;;;;4998057;28;20046;-72
2022/03/18 08:12:29;;;;;;;27.98;17.80;;;5.80;99.90;;;;;;4986980;28;20076;-72
2022/03/18 08:14:55;;;;;;;26.23;18.88;;;5.90;99.90;;;;;;4996130;28;20054;-71
2022/03/18 08:17:22;;;;;;;40.30;19.08;;;6.00;99.90;;;;;;4997914;28;20046;-73
2022/03/18 08:19:47;;;;;;;31.30;18.45;;;6.10;99.90;;;;;;4998126;28;20046;-72
2022/03/18 08:22:13;;;;;;;30.08;18.00;;;6.20;99.90;;;;;;4997301;28;20590;-72
2022/03/18 08:24:38;;;;;;;34.67;19.50;;;6.30;99.90;;;;;;4985276;28;20506;-72
2022/03/18 08:27:06;;;;;;;31.00;18.35;;;6.40;99.90;;;;;;5005643;28;20056;-71
2022/03/18 08:29:31;;;;;;;36.08;19.83;;;6.60;99.90;;;;;;4989340;28;20514;-73
2022/03/18 08:31:57;;;;;;;33.83;19.52;;;6.70;99.90;;;;;;5000586;28;20122;-71
2022/03/18 08:34:23;;;;;;;28.50;17.48;;;6.80;99.90;;;;;;5011187;28;20053;-72
2022/03/18 08:36:48;;;;;;;31.70;18.63;;;6.90;99.90;;;;;;5017291;28;20050;-70
2022/03/18 08:39:14;;;;;;;28.52;17.70;;;7.00;99.90;;;;;;5000665;28;20098;-70
2022/03/18 08:41:40;;;;;;;25.02;17.40;;;7.10;99.90;;;;;;5017598;28;20038;-71
2022/03/18 08:44:05;;;;;;;33.05;17.88;;;7.20;99.90;;;;;;5017487;28;20077;-69
2022/03/18 08:46:33;;;;;;;29.98;16.83;;;7.30;99.90;;;;;;5017331;28;20354;-69
2022/03/18 08:48:59;;;;;;;30.17;17.10;;;7.40;99.90;;;;;;5017307;28;20057;-69
2022/03/18 08:51:24;;;;;;;29.38;16.77;;;7.50;99.90;;;;;;5016947;28;20042;-72
2022/03/18 08:53:50;;;;;;;32.47;16.50;;;7.70;99.90;;;;;;4991870;28;20439;-71
2022/03/18 08:56:15;;;;;;;28.58;15.10;;;7.90;99.90;;;;;;4980096;28;20356;-68
2022/03/18 08:58:41;;;;;;;30.77;15.50;;;8.00;99.90;;;;;;4997350;28;20042;-70
2022/03/18 09:01:06;;;;;;;36.72;16.42;;;8.10;99.90;;;;;;5001332;28;20133;-70
2022/03/18 09:03:32;;;;;;;28.75;15.65;;;8.20;99.90;;;;;;5005814;28;20046;-70
2022/03/18 09:05:58;;;;;;;28.63;14.63;;;8.30;99.90;;;;;;4985713;28;20119;-70
2022/03/18 09:08:23;;;;;;;29.85;15.23;;;8.60;99.90;;;;;;5012350;28;20064;-71
2022/03/18 09:10:49;;;;;;;28.67;15.05;;;8.60;99.90;;;;;;5017384;28;20088;-70
2022/03/18 09:13:15;;;;;;;25.63;14.13;;;8.60;99.90;;;;;;5017567;28;20088;-72
2022/03/18 09:15:41;;;;;;;28.42;16.17;;;8.80;99.90;;;;;;5016755;28;20366;-72
2022/03/18 09:18:06;;;;;;;25.85;14.60;;;8.90;99.90;;;;;;4983174;28;20050;-72
2022/03/18 09:20:32;;;;;;;28.90;15.25;;;9.00;99.90;;;;;;4999826;28;20045;-71
2022/03/18 09:22:58;;;;;;;33.38;14.20;;;9.10;99.90;;;;;;5012708;28;20073;-70
2022/03/18 09:25:23;;;;;;;27.90;14.35;;;9.20;99.90;;;;;;5016271;28;20054;-71
2022/03/18 09:27:51;;;;;;;29.30;13.82;;;9.30;99.90;;;;;;5016278;28;20054;-71
2022/03/18 09:30:16;;;;;;;36.30;15.20;;;9.40;99.90;;;;;;5016150;28;20049;-70
2022/03/18 09:32:45;;;;;;;26.85;13.68;;;9.50;99.90;;;;;;4999113;28;20061;-70
2022/03/18 09:35:14;;;;;;;29.33;13.52;;;9.50;99.90;;;;;;5013963;28;20042;-72
2022/03/18 09:37:40;;;;;;;23.17;12.15;;;9.60;99.90;;;;;;5016382;28;20375;-70
2022/03/18 09:40:08;;;;;;;24.92;13.52;;;9.70;99.90;;;;;;4981935;28;20359;-72
2022/03/18 09:42:51;;;;;;;25.63;13.65;;;9.70;99.90;;;;;;4996654;28;20398;-71
2022/03/18 09:45:20;;;;;;;;;;;9.80;99.90;;;;;;4999309;28;20045;-68
2022/03/18 09:47:46;;;;;;;27.85;13.65;;;9.80;99.90;;;;;;4985255;28;19921;-72
2022/03/18 09:50:12;;;;;;;37.20;21.45;;;9.80;99.90;;;;;;5004220;28;20050;-69
2022/03/18 09:52:38;;;;;;;27.33;15.52;;;9.90;99.90;;;;;;5005472;28;20119;-69
2022/03/18 09:55:04;;;;;;;23.42;14.15;;;10.00;99.90;;;;;;5004531;28;20084;-69
2022/03/18 09:57:29;;;;;;;26.42;14.00;;;10.00;99.90;;;;;;4998952;28;20074;-69
2022/03/18 09:59:55;;;;;;;25.88;14.27;;;10.10;99.90;;;;;;4996149;28;20106;-71
2022/03/18 10:02:26;;;;;;;28.88;14.38;;;10.20;99.90;;;;;;4995924;28;20434;-69
2022/03/18 10:05:19;;;;;;;30.35;13.55;;;10.30;99.90;;;;;;4979169;28;20490;-66
2022/03/18 10:07:56;;;;;;;25.05;14.43;;;10.40;99.90;;;;;;4977176;28;20058;-70
2022/03/18 10:10:23;;;;;;;25.38;12.68;;;10.60;99.90;;;;;;4959615;28;20117;-69
2022/03/18 10:12:50;;;;;;;25.85;12.25;;;10.70;99.90;;;;;;4973866;28;20126;-69
2022/03/18 10:15:26;;;;;;;29.75;12.40;;;10.80;99.90;;;;;;4967722;28;20105;-69
2022/03/18 10:17:57;;;;;;;25.92;11.85;;;10.90;99.90;;;;;;4983167;28;20177;-70
2022/03/18 10:20:28;;;;;;;26.63;12.13;;;11.10;99.90;;;;;;4981712;28;20121;-68
2022/03/18 10:22:57;;;;;;;20.83;10.82;;;11.20;99.90;;;;;;4991290;28;20462;-70
2022/03/18 10:25:50;;;;;;;35.08;12.70;;;11.30;99.90;;;;;;4992372;28;20081;-71
2022/03/18 10:28:35;;;;;;;22.20;10.80;;;11.40;99.90;;;;;;4967711;28;20042;-71
2022/03/18 10:31:21;;;;;;;19.60;9.82;;;11.50;99.90;;;;;;4983987;28;20117;-70
2022/03/18 10:39:32;;;;;;;19.02;9.75;;;11.70;99.90;;;;;;4995055;28;20062;-69
2022/03/18 10:42:00;;;;;;;22.92;10.75;;;11.70;99.90;;;;;;4995393;28;20096;-70
2022/03/18 10:44:27;;;;;;;20.08;10.00;;;11.70;99.90;;;;;;4995432;28;20096;-70
2022/03/18 10:46:56;;;;;;;24.05;10.10;;;11.80;99.90;;;;;;4994446;28;20132;-73
2022/03/18 10:49:24;;;;;;;20.90;10.13;;;11.90;99.90;;;;;;4992320;28;20042;-71
2022/03/18 10:51:51;;;;;;;23.88;11.27;;;12.00;99.90;;;;;;4973927;28;20043;-70
2022/03/18 10:54:24;;;;;;;21.83;11.57;;;12.10;99.90;;;;;;4968175;28;20050;-70
2022/03/18 10:56:54;;;;;;;;;;;12.10;99.90;;;;;;4978325;28;20053;-70
2022/03/18 10:59:20;;;;;;;24.83;9.95;;;12.10;99.90;;;;;;4967472;28;19929;-72
2022/03/18 11:01:51;;;;;;;25.50;10.32;;;12.20;99.90;;;;;;4978670;28;20419;-69
2022/03/18 11:04:18;;;;;;;22.83;9.50;;;12.30;99.90;;;;;;4995622;28;20046;-69
2022/03/18 11:07:29;;;;;;;24.50;11.23;;;12.40;99.90;;;;;;5007586;28;20060;-71
2022/03/18 11:12:26;;;;;;;18.77;9.52;;;12.50;99.90;;;;;;5014049;28;20120;-69
2022/03/18 11:14:54;;;;;;;22.33;10.48;;;12.50;99.90;;;;;;4997741;28;20500;-69
2022/03/18 11:17:21;;;;;;;22.35;9.65;;;12.50;99.90;;;;;;5014827;28;20049;-68
2022/03/18 11:19:47;;;;;;;22.48;9.40;;;12.60;99.90;;;;;;4987002;28;20050;-67
2022/03/18 11:22:16;;;;;;;24.25;9.55;;;12.60;99.90;;;;;;4997301;28;20081;-70
2022/03/18 11:24:43;;;;;;;20.95;8.70;;;12.60;99.90;;;;;;5006872;28;20069;-70
2022/03/18 11:27:11;;;;;;;16.13;7.75;;;12.70;99.90;;;;;;4978868;28;20053;-71
2022/03/18 11:29:38;;;;;;;23.65;8.68;;;12.70;99.90;;;;;;4994608;28;20050;-72
2022/03/18 11:32:09;;;;;;;15.63;7.90;;;12.80;99.90;;;;;;4995160;28;20046;-70
2022/03/18 11:34:45;;;;;;;16.83;7.93;;;12.90;99.90;;;;;;4995399;28;20038;-72
2022/03/18 11:37:10;;;;;;;23.02;9.07;;;13.00;99.90;;;;;;4995483;28;20054;-70
2022/03/18 11:39:38;;;;;;;15.50;8.38;;;13.10;99.90;;;;;;4991189;28;20100;-68
2022/03/18 11:42:07;;;;;;;20.33;8.73;;;13.30;99.90;;;;;;4994782;28;20057;-68
2022/03/18 11:44:36;;;;;;;15.27;7.57;;;13.40;99.90;;;;;;4995130;28;20370;-71
2022/03/18 11:47:23;;;;;;;23.70;8.93;;;13.40;99.90;;;;;;4977559;28;20042;-70
2022/03/18 11:49:48;;;;;;;25.08;9.00;;;13.40;99.90;;;;;;4995083;28;20054;-71
2022/03/18 11:52:14;;;;;;;14.20;7.72;;;13.40;99.90;;;;;;5001269;28;20514;-69
2022/03/18 11:55:16;;;;;;;17.10;7.05;;;13.40;99.90;;;;;;5014328;28;20137;-71
2022/03/18 11:57:45;;;;;;;17.33;7.57;;;13.30;99.90;;;;;;5011556;28;20489;-70
2022/03/18 12:00:33;;;;;;;22.15;8.95;;;13.50;99.90;;;;;;4996403;28;20045;-73
2022/03/18 12:03:04;;;;;;;18.73;7.80;;;13.40;99.90;;;;;;5014728;28;20053;-71
2022/03/18 12:05:31;;;;;;;18.70;7.03;;;13.50;99.90;;;;;;5011529;28;20406;-72
2022/03/18 12:07:59;;;;;;;16.13;7.32;;;13.50;99.90;;;;;;5014472;28;20116;-72
2022/03/18 12:10:39;;;;;;;17.88;6.22;;;13.60;99.90;;;;;;4997280;28;20042;-73
2022/03/18 12:13:05;;;;;;;17.58;6.95;;;13.60;99.90;;;;;;5010643;28;20111;-73
2022/03/18 12:15:37;;;;;;;19.92;6.85;;;13.70;99.90;;;;;;5014616;28;20411;-72
2022/03/18 12:18:04;;;;;;;18.17;6.70;;;13.60;99.90;;;;;;4996534;28;20133;-71
2022/03/18 12:20:38;;;;;;;17.75;7.43;;;13.60;99.90;;;;;;5013424;28;20057;-70
2022/03/18 12:23:12;;;;;;;15.77;7.00;;;13.60;99.90;;;;;;5010978;28;20038;-71
2022/03/18 12:25:39;;;;;;;17.95;6.70;;;13.70;99.90;;;;;;5017000;28;20050;-73
2022/03/18 12:28:09;;;;;;;15.90;7.03;;;13.80;99.90;;;;;;5017308;28;20057;-72
2022/03/18 12:30:35;;;;;;;16.02;7.70;;;13.90;99.90;;;;;;5017263;28;20046;-73
2022/03/18 12:33:06;;;;;;;19.23;7.45;;;14.00;99.90;;;;;;5017047;28;20183;-71
2022/03/18 12:35:45;;;;;;;17.13;7.65;;;14.00;99.90;;;;;;5000479;28;20072;-71
2022/03/18 12:38:16;;;;;;;22.45;7.80;;;14.00;99.90;;;;;;5017161;28;20132;-71
2022/03/18 12:40:53;;;;;;;20.38;6.82;;;14.00;99.90;;;;;;4981289;28;20046;-70
2022/03/18 12:43:19;;;;;;;20.92;7.55;;;14.00;99.90;;;;;;4973123;28;20057;-71
2022/03/18 12:45:45;;;;;;;17.20;6.97;;;14.00;99.90;;;;;;4998029;28;20053;-71
2022/03/18 12:48:13;;;;;;;17.25;6.45;;;14.10;99.90;;;;;;5007683;28;20057;-71
2022/03/18 12:50:53;;;;;;;16.30;7.63;;;14.20;99.90;;;;;;5017472;28;20042;-71
2022/03/18 12:53:22;;;;;;;16.65;7.10;;;14.40;99.90;;;;;;5017413;28;20049;-70
2022/03/18 12:55:51;;;;;;;21.70;8.40;;;14.50;99.90;;;;;;5017541;28;20054;-73
2022/03/18 12:58:19;;;;;;;15.90;6.45;;;14.60;99.90;;;;;;5000055;28;20045;-71